createdAt,value
2018-07-13T00:00:54.277Z,0
2018-07-13T00:01:54.554Z,0
2018-07-13T00:02:55.053Z,0
2018-07-13T00:03:54.510Z,0
2018-07-13T00:04:54.768Z,0
2018-07-13T00:05:54.222Z,0
2018-07-13T00:06:54.735Z,0
2018-07-13T00:07:54.470Z,0
2018-07-13T00:08:54.737Z,0
2018-07-13T00:09:54.983Z,0
2018-07-13T00:10:54.963Z,0
2018-07-13T00:11:54.692Z,0
2018-07-13T00:12:54.668Z,0
2018-07-13T00:13:54.667Z,0
2018-07-13T00:14:54.911Z,0
2018-07-13T00:15:54.648Z,0
2018-07-13T00:16:54.653Z,0
2018-07-13T00:17:54.351Z,0
2018-07-13T00:18:54.089Z,0
2018-07-13T00:19:54.594Z,0
2018-07-13T00:20:54.860Z,0
2018-07-13T00:21:54.583Z,0
2018-07-13T00:22:54.032Z,0
2018-07-13T00:23:54.556Z,0
2018-07-13T00:24:54.546Z,0
2018-07-13T00:25:54.795Z,0
2018-07-13T00:26:54.521Z,0
2018-07-13T00:27:54.561Z,0
2018-07-13T00:28:53.964Z,0
2018-07-13T00:29:54.756Z,0
2018-07-13T00:30:54.478Z,0
2018-07-13T00:31:54.199Z,0
2018-07-13T00:32:54.450Z,0
2018-07-13T00:33:54.444Z,0
2018-07-13T00:34:54.421Z,0
2018-07-13T00:35:54.165Z,0
2018-07-13T00:36:54.403Z,0
2018-07-13T00:37:54.394Z,0
2018-07-13T00:38:54.375Z,0
2018-07-13T00:39:54.526Z,0
2018-07-13T00:40:54.103Z,0
2018-07-13T00:41:54.348Z,0
2018-07-13T00:42:53.549Z,0
2018-07-13T00:43:54.604Z,0
2018-07-13T00:44:54.315Z,0
2018-07-13T00:45:54.100Z,0
2018-07-13T00:46:54.046Z,0
2018-07-13T00:47:54.544Z,0
2018-07-13T00:48:54.259Z,0
2018-07-13T00:49:54.012Z,0
2018-07-13T00:50:53.992Z,0
2018-07-13T00:51:54.238Z,0
2018-07-13T00:52:54.485Z,0
2018-07-13T00:53:54.211Z,0
2018-07-13T00:54:54.456Z,0
2018-07-13T00:55:54.194Z,0
2018-07-13T00:56:53.905Z,0
2018-07-13T00:57:54.171Z,0
2018-07-13T00:58:53.885Z,0
2018-07-13T00:59:54.144Z,0
2018-07-13T01:00:53.869Z,0
2018-07-13T01:01:54.112Z,0
2018-07-13T01:02:54.109Z,0
2018-07-13T01:03:53.555Z,0
2018-07-13T01:04:54.077Z,0
2018-07-13T01:05:53.275Z,0
2018-07-13T01:06:54.309Z,0
2018-07-13T01:07:54.056Z,0
2018-07-13T01:08:53.765Z,0
2018-07-13T01:09:53.753Z,0
2018-07-13T01:10:54.318Z,0
2018-07-13T01:11:54.259Z,0
2018-07-13T01:12:53.715Z,0
2018-07-13T01:13:54.245Z,0
2018-07-13T01:14:53.694Z,0
2018-07-13T01:15:53.695Z,0
2018-07-13T01:16:53.408Z,0
2018-07-13T01:17:53.941Z,0
2018-07-13T01:18:53.926Z,0
2018-07-13T01:19:53.642Z,0
2018-07-13T01:20:53.882Z,0
2018-07-13T01:21:53.872Z,0
2018-07-13T01:22:53.868Z,0
2018-07-13T01:23:53.587Z,0
2018-07-13T01:24:53.833Z,0
2018-07-13T01:25:54.157Z,0
2018-07-13T01:26:54.080Z,0
2018-07-13T01:27:53.552Z,0
2018-07-13T01:28:53.561Z,0
2018-07-13T01:29:54.067Z,0
2018-07-13T01:30:53.496Z,0
2018-07-13T01:31:53.755Z,0
2018-07-13T01:32:54.007Z,0
2018-07-13T01:33:53.231Z,0
2018-07-13T01:34:53.463Z,0
2018-07-13T01:35:53.184Z,0
2018-07-13T01:36:53.704Z,0
2018-07-13T01:37:53.688Z,0
2018-07-13T01:38:53.156Z,0
2018-07-13T01:39:53.655Z,0
2018-07-13T01:40:53.376Z,0
2018-07-13T01:41:53.635Z,0
2018-07-13T01:42:53.353Z,0
2018-07-13T01:43:53.359Z,0
2018-07-13T01:44:53.860Z,0
2018-07-13T01:45:53.588Z,0
2018-07-13T01:46:53.311Z,0
2018-07-13T01:47:53.554Z,0
2018-07-13T01:48:53.280Z,0
2018-07-13T01:49:53.540Z,0
2018-07-13T01:50:53.781Z,0
2018-07-13T01:51:53.509Z,0
2018-07-13T01:52:53.502Z,0
2018-07-13T01:53:53.223Z,0
2018-07-13T01:54:53.477Z,0
2018-07-13T01:55:54.035Z,0
2018-07-13T01:56:53.720Z,0
2018-07-13T01:57:53.438Z,0
2018-07-13T01:58:53.428Z,0
2018-07-13T01:59:53.409Z,0
2018-07-13T02:00:53.408Z,0
2018-07-13T02:01:53.400Z,0
2018-07-13T02:02:53.392Z,0
2018-07-13T02:03:53.370Z,0
2018-07-13T02:04:53.622Z,0
2018-07-13T02:05:52.802Z,0
2018-07-13T02:06:53.334Z,0
2018-07-13T02:07:52.528Z,0
2018-07-13T02:08:53.575Z,0
2018-07-13T02:09:53.023Z,0
2018-07-13T02:10:53.298Z,0
2018-07-13T02:11:52.733Z,0
2018-07-13T02:12:53.247Z,0
2018-07-13T02:13:52.989Z,0
2018-07-13T02:14:53.500Z,0
2018-07-13T02:15:53.225Z,0
2018-07-13T02:16:53.472Z,0
2018-07-13T02:17:53.566Z,0
2018-07-13T02:18:52.912Z,0
2018-07-13T02:19:52.908Z,0
2018-07-13T02:20:53.203Z,0
2018-07-13T02:21:53.406Z,0
2018-07-13T02:22:53.393Z,0
2018-07-13T02:23:53.128Z,0
2018-07-13T02:24:53.102Z,0
2018-07-13T02:25:53.089Z,0
2018-07-13T02:26:52.811Z,0
2018-07-13T02:27:53.058Z,0
2018-07-13T02:28:53.050Z,0
2018-07-13T02:29:53.031Z,0
2018-07-13T02:30:53.032Z,0
2018-07-13T02:31:53.009Z,0
2018-07-13T02:32:53.268Z,0
2018-07-13T02:33:52.874Z,0
2018-07-13T02:34:53.007Z,0
2018-07-13T02:35:52.477Z,0
2018-07-13T02:36:52.704Z,0
2018-07-13T02:37:53.232Z,0
2018-07-13T02:38:53.016Z,0
2018-07-13T02:39:52.919Z,0
2018-07-13T02:40:52.642Z,0
2018-07-13T02:41:52.898Z,0
2018-07-13T02:42:53.146Z,0
2018-07-13T02:43:53.177Z,0
2018-07-13T02:44:52.863Z,0
2018-07-13T02:45:53.125Z,0
2018-07-13T02:46:52.578Z,0
2018-07-13T02:47:52.817Z,0
2018-07-13T02:48:52.282Z,0
2018-07-13T02:49:52.798Z,0
2018-07-13T02:50:52.516Z,0
2018-07-13T02:51:52.767Z,0
2018-07-13T02:52:52.762Z,0
2018-07-13T02:53:52.760Z,0
2018-07-13T02:54:52.991Z,0
2018-07-13T02:55:52.726Z,0
2018-07-13T02:56:52.963Z,0
2018-07-13T02:57:52.426Z,0
2018-07-13T02:58:52.405Z,0
2018-07-13T02:59:52.715Z,0
2018-07-13T03:00:52.909Z,0
2018-07-13T03:01:52.117Z,0
2018-07-13T03:02:51.821Z,0
2018-07-13T03:03:52.879Z,0
2018-07-13T03:04:52.596Z,0
2018-07-13T03:05:52.335Z,0
2018-07-13T03:06:52.315Z,0
2018-07-13T03:07:52.832Z,0
2018-07-13T03:08:52.285Z,0
2018-07-13T03:09:52.015Z,0
2018-07-13T03:10:52.781Z,0
2018-07-13T03:11:52.495Z,0
2018-07-13T03:12:52.493Z,0
2018-07-13T03:13:52.524Z,0
2018-07-13T03:14:52.481Z,0
2018-07-13T03:15:52.453Z,0
2018-07-13T03:16:52.714Z,0
2018-07-13T03:17:52.157Z,0
2018-07-13T03:18:52.670Z,0
2018-07-13T03:19:52.409Z,0
2018-07-13T03:20:52.666Z,0
2018-07-13T03:21:52.378Z,0
2018-07-13T03:22:52.371Z,0
2018-07-13T03:23:52.358Z,0
2018-07-13T03:24:52.339Z,0
2018-07-13T03:25:51.792Z,0
2018-07-13T03:26:52.382Z,0
2018-07-13T03:27:52.030Z,0
2018-07-13T03:28:52.010Z,0
2018-07-13T03:29:52.005Z,0
2018-07-13T03:30:51.991Z,0
2018-07-13T03:31:51.997Z,0
2018-07-13T03:32:51.952Z,5
2018-07-13T03:33:51.678Z,5
2018-07-13T03:34:52.203Z,5
2018-07-13T03:35:51.931Z,5
2018-07-13T03:36:51.918Z,5
2018-07-13T03:37:51.636Z,5
2018-07-13T03:38:52.139Z,5
2018-07-13T03:39:52.124Z,5
2018-07-13T03:40:51.851Z,5
2018-07-13T03:41:51.843Z,5
2018-07-13T03:42:51.830Z,5
2018-07-13T03:43:51.822Z,5
2018-07-13T03:44:52.066Z,5
2018-07-13T03:45:51.782Z,10
2018-07-13T03:46:51.770Z,10
2018-07-13T03:47:51.494Z,10
2018-07-13T03:48:52.014Z,10
2018-07-13T03:49:51.740Z,10
2018-07-13T03:50:52.042Z,10
2018-07-13T03:51:51.971Z,10
2018-07-13T03:52:51.432Z,10
2018-07-13T03:53:51.951Z,10
2018-07-13T03:54:52.136Z,10
2018-07-13T03:55:51.651Z,15
2018-07-13T03:56:51.654Z,15
2018-07-13T03:57:51.362Z,15
2018-07-13T03:58:51.880Z,15
2018-07-13T03:59:51.877Z,15
2018-07-13T04:00:51.905Z,15
2018-07-13T04:01:52.105Z,15
2018-07-13T04:02:51.555Z,15
2018-07-13T04:03:52.150Z,15
2018-07-13T04:04:51.800Z,15
2018-07-13T04:05:51.524Z,20
2018-07-13T04:06:52.034Z,20
2018-07-13T04:07:51.223Z,20
2018-07-13T04:08:51.208Z,20
2018-07-13T04:09:52.033Z,20
2018-07-13T04:10:51.722Z,20
2018-07-13T04:11:51.983Z,20
2018-07-13T04:12:51.692Z,20
2018-07-13T04:13:51.686Z,20
2018-07-13T04:14:51.590Z,20
2018-07-13T04:15:51.389Z,25
2018-07-13T04:16:51.632Z,25
2018-07-13T04:17:51.363Z,25
2018-07-13T04:18:51.080Z,25
2018-07-13T04:19:51.614Z,25
2018-07-13T04:20:51.323Z,25
2018-07-13T04:21:51.569Z,25
2018-07-13T04:22:51.035Z,25
2018-07-13T04:23:51.285Z,25
2018-07-13T04:24:51.790Z,25
2018-07-13T04:25:51.526Z,25
2018-07-13T04:26:51.512Z,30
2018-07-13T04:27:51.493Z,30
2018-07-13T04:28:51.442Z,30
2018-07-13T04:29:51.467Z,30
2018-07-13T04:30:50.927Z,30
2018-07-13T04:31:51.695Z,30
2018-07-13T04:32:51.160Z,30
2018-07-13T04:33:51.405Z,30
2018-07-13T04:34:51.391Z,30
2018-07-13T04:35:51.135Z,30
2018-07-13T04:36:51.110Z,30
2018-07-13T04:37:50.843Z,35
2018-07-13T04:38:51.340Z,35
2018-07-13T04:39:51.079Z,35
2018-07-13T04:40:51.165Z,35
2018-07-13T04:41:51.575Z,35
2018-07-13T04:42:51.030Z,35
2018-07-13T04:43:51.015Z,35
2018-07-13T04:44:51.533Z,35
2018-07-13T04:45:51.523Z,35
2018-07-13T04:46:51.497Z,35
2018-07-13T04:47:51.239Z,35
2018-07-13T04:48:50.954Z,40
2018-07-13T04:49:53.044Z,40
2018-07-13T04:50:51.191Z,40
2018-07-13T04:51:50.925Z,40
2018-07-13T04:52:50.915Z,40
2018-07-13T04:53:51.153Z,45
2018-07-13T04:54:51.409Z,45
2018-07-13T04:55:50.597Z,50
2018-07-13T04:56:51.378Z,50
2018-07-13T04:57:51.100Z,50
2018-07-13T04:58:51.082Z,50
2018-07-13T04:59:51.343Z,50
2018-07-13T05:00:50.658Z,50
2018-07-13T05:01:50.382Z,55
2018-07-13T05:02:51.043Z,50
2018-07-13T05:03:51.288Z,50
2018-07-13T05:04:51.277Z,50
2018-07-13T05:05:51.007Z,55
2018-07-13T05:06:50.997Z,55
2018-07-13T05:07:50.988Z,55
2018-07-13T05:08:50.964Z,55
2018-07-13T05:09:50.952Z,50
2018-07-13T05:10:50.674Z,60
2018-07-13T05:11:50.398Z,60
2018-07-13T05:12:50.645Z,60
2018-07-13T05:13:50.909Z,60
2018-07-13T05:14:50.618Z,60
2018-07-13T05:15:50.878Z,60
2018-07-13T05:16:50.856Z,60
2018-07-13T05:17:50.585Z,60
2018-07-13T05:18:50.306Z,60
2018-07-13T05:19:50.555Z,70
2018-07-13T05:20:50.822Z,65
2018-07-13T05:21:51.075Z,70
2018-07-13T05:22:49.996Z,70
2018-07-13T05:23:50.786Z,70
2018-07-13T05:24:50.784Z,60
2018-07-13T05:25:50.504Z,65
2018-07-13T05:26:50.949Z,65
2018-07-13T05:27:50.723Z,65
2018-07-13T05:28:50.721Z,70
2018-07-13T05:29:50.710Z,70
2018-07-13T05:30:51.279Z,65
2018-07-13T05:31:50.415Z,70
2018-07-13T05:32:50.398Z,70
2018-07-13T05:33:50.388Z,70
2018-07-13T05:34:50.635Z,80
2018-07-13T05:35:50.364Z,85
2018-07-13T05:36:50.353Z,85
2018-07-13T05:37:50.870Z,90
2018-07-13T05:38:50.858Z,90
2018-07-13T05:39:50.318Z,85
2018-07-13T05:40:50.311Z,85
2018-07-13T05:41:50.292Z,90
2018-07-13T05:42:50.547Z,90
2018-07-13T05:43:50.530Z,80
2018-07-13T05:44:50.528Z,80
2018-07-13T05:45:49.982Z,85
2018-07-13T05:46:50.498Z,85
2018-07-13T05:47:50.485Z,90
2018-07-13T05:48:50.475Z,90
2018-07-13T05:49:50.675Z,90
2018-07-13T05:50:50.449Z,90
2018-07-13T05:51:50.182Z,85
2018-07-13T05:52:50.434Z,85
2018-07-13T05:53:49.897Z,90
2018-07-13T05:54:50.877Z,95
2018-07-13T05:55:50.389Z,95
2018-07-13T05:56:50.429Z,85
2018-07-13T05:57:50.115Z,85
2018-07-13T05:58:49.825Z,80
2018-07-13T05:59:49.827Z,80
2018-07-13T06:00:49.813Z,85
2018-07-13T06:01:50.587Z,90
2018-07-13T06:02:50.314Z,90
2018-07-13T06:03:50.654Z,90
2018-07-13T06:04:50.294Z,95
2018-07-13T06:05:50.548Z,95
2018-07-13T06:06:50.539Z,95
2018-07-13T06:07:50.257Z,95
2018-07-13T06:08:49.989Z,95
2018-07-13T06:09:50.579Z,105
2018-07-13T06:10:49.957Z,105
2018-07-13T06:11:50.223Z,95
2018-07-13T06:12:50.210Z,100
2018-07-13T06:13:49.922Z,105
2018-07-13T06:14:50.361Z,110
2018-07-13T06:15:50.180Z,115
2018-07-13T06:16:50.169Z,125
2018-07-13T06:17:49.615Z,120
2018-07-13T06:18:49.341Z,110
2018-07-13T06:19:49.855Z,100
2018-07-13T06:20:50.113Z,105
2018-07-13T06:21:49.834Z,110
2018-07-13T06:22:50.089Z,115
2018-07-13T06:23:50.080Z,115
2018-07-13T06:24:49.806Z,110
2018-07-13T06:25:50.053Z,110
2018-07-13T06:26:49.793Z,120
2018-07-13T06:27:50.026Z,135
2018-07-13T06:28:50.285Z,130
2018-07-13T06:29:50.005Z,110
2018-07-13T06:30:50.261Z,100
2018-07-13T06:31:49.992Z,100
2018-07-13T06:32:49.730Z,110
2018-07-13T06:33:49.968Z,110
2018-07-13T06:34:49.974Z,95
2018-07-13T06:35:49.677Z,95
2018-07-13T06:36:49.675Z,95
2018-07-13T06:37:49.655Z,95
2018-07-13T06:38:49.380Z,95
2018-07-13T06:39:49.905Z,100
2018-07-13T06:40:49.366Z,110
2018-07-13T06:41:49.881Z,120
2018-07-13T06:42:49.879Z,140
2018-07-13T06:43:49.597Z,170
2018-07-13T06:44:50.388Z,190
2018-07-13T06:45:49.836Z,190
2018-07-13T06:46:49.554Z,180
2018-07-13T06:47:50.069Z,170
2018-07-13T06:48:49.537Z,170
2018-07-13T06:49:49.793Z,170
2018-07-13T06:50:49.702Z,160
2018-07-13T06:51:49.506Z,155
2018-07-13T06:52:49.486Z,150
2018-07-13T06:53:49.494Z,140
2018-07-13T06:54:49.472Z,145
2018-07-13T06:55:49.461Z,140
2018-07-13T06:56:49.690Z,165
2018-07-13T06:57:49.716Z,205
2018-07-13T06:58:49.433Z,165
2018-07-13T06:59:49.423Z,135
2018-07-13T07:00:48.891Z,120
2018-07-13T07:01:49.406Z,135
2018-07-13T07:02:49.656Z,150
2018-07-13T07:03:49.914Z,145
2018-07-13T07:04:49.925Z,125
2018-07-13T07:05:49.902Z,125
2018-07-13T07:06:49.347Z,150
2018-07-13T07:07:49.469Z,165
2018-07-13T07:08:49.330Z,165
2018-07-13T07:09:48.789Z,165
2018-07-13T07:10:49.041Z,160
2018-07-13T07:11:49.824Z,135
2018-07-13T07:12:49.286Z,135
2018-07-13T07:13:49.549Z,120
2018-07-13T07:14:49.267Z,135
2018-07-13T07:15:49.801Z,125
2018-07-13T07:16:49.246Z,180
2018-07-13T07:17:49.776Z,160
2018-07-13T07:18:49.498Z,145
2018-07-13T07:19:49.750Z,160
2018-07-13T07:20:49.229Z,170
2018-07-13T07:21:48.937Z,220
2018-07-13T07:22:48.929Z,195
2018-07-13T07:23:49.439Z,175
2018-07-13T07:24:49.438Z,180
2018-07-13T07:25:48.906Z,160
2018-07-13T07:26:49.412Z,165
2018-07-13T07:27:49.133Z,170
2018-07-13T07:28:49.649Z,185
2018-07-13T07:29:49.106Z,185
2018-07-13T07:30:49.474Z,175
2018-07-13T07:31:48.834Z,175
2018-07-13T07:32:49.356Z,175
2018-07-13T07:33:49.332Z,170
2018-07-13T07:34:49.322Z,155
2018-07-13T07:35:49.590Z,140
2018-07-13T07:36:49.093Z,140
2018-07-13T07:37:49.088Z,120
2018-07-13T07:38:48.772Z,110
2018-07-13T07:39:49.535Z,150
2018-07-13T07:40:49.536Z,120
2018-07-13T07:41:48.733Z,135
2018-07-13T07:42:49.252Z,170
2018-07-13T07:43:49.070Z,225
2018-07-13T07:44:49.233Z,260
2018-07-13T07:45:49.224Z,315
2018-07-13T07:46:49.497Z,1310
2018-07-13T07:47:49.193Z,1300
2018-07-13T07:48:49.191Z,410
2018-07-13T07:49:49.180Z,420
2018-07-13T07:50:48.913Z,845
2018-07-13T07:51:48.368Z,1390
2018-07-13T07:52:48.620Z,1415
2018-07-13T07:53:48.622Z,1355
2018-07-13T07:54:49.074Z,1240
2018-07-13T07:55:49.419Z,1235
2018-07-13T07:56:49.134Z,975
2018-07-13T07:57:49.270Z,1005
2018-07-13T07:58:49.120Z,640
2018-07-13T07:59:49.114Z,510
2018-07-13T08:00:49.115Z,1415
2018-07-13T08:01:49.332Z,1340
2018-07-13T08:02:49.166Z,1335
2018-07-13T08:03:48.825Z,1375
2018-07-13T08:04:49.121Z,1390
2018-07-13T08:05:48.806Z,1395
2018-07-13T08:06:50.405Z,1360
2018-07-13T08:07:49.597Z,1310
2018-07-13T08:08:49.329Z,1290
2018-07-13T08:09:49.063Z,1335
2018-07-13T08:10:48.796Z,1395
2018-07-13T08:11:49.042Z,1445
2018-07-13T08:12:48.792Z,1500
2018-07-13T08:13:48.837Z,1515
2018-07-13T08:14:49.389Z,1440
2018-07-13T08:15:48.772Z,1415
2018-07-13T08:16:49.331Z,1425
2018-07-13T08:17:49.076Z,1430
2018-07-13T08:18:49.038Z,1400
2018-07-13T08:19:49.052Z,1445
2018-07-13T08:20:49.061Z,1510
2018-07-13T08:21:49.023Z,1495
2018-07-13T08:22:49.294Z,1485
2018-07-13T08:23:49.022Z,1480
2018-07-13T08:24:48.486Z,1440
2018-07-13T08:25:49.279Z,1300
2018-07-13T08:26:48.961Z,1070
2018-07-13T08:27:49.050Z,1110
2018-07-13T08:28:49.016Z,585
2018-07-13T08:29:49.272Z,370
2018-07-13T08:30:48.745Z,185
2018-07-13T08:31:48.746Z,620
2018-07-13T08:32:49.008Z,340
2018-07-13T08:33:49.282Z,290
2018-07-13T08:34:49.008Z,220
2018-07-13T08:35:49.021Z,250
2018-07-13T08:36:48.743Z,250
2018-07-13T08:37:48.961Z,305
2018-07-13T08:38:48.729Z,490
2018-07-13T08:39:48.999Z,460
2018-07-13T08:40:48.462Z,495
2018-07-13T08:41:48.986Z,385
2018-07-13T08:42:48.725Z,265
2018-07-13T08:43:48.979Z,190
2018-07-13T08:44:48.986Z,205
2018-07-13T08:45:48.877Z,175
2018-07-13T08:46:48.975Z,310
2018-07-13T08:47:49.247Z,180
2018-07-13T08:48:48.702Z,165
2018-07-13T08:49:48.967Z,155
2018-07-13T08:50:48.690Z,150
2018-07-13T08:51:49.052Z,165
2018-07-13T08:52:48.957Z,240
2018-07-13T08:53:48.666Z,180
2018-07-13T08:54:48.933Z,170
2018-07-13T08:55:48.929Z,270
2018-07-13T08:56:49.187Z,300
2018-07-13T08:57:48.987Z,430
2018-07-13T08:58:48.915Z,365
2018-07-13T08:59:49.488Z,325
2018-07-13T09:00:48.904Z,265
2018-07-13T09:01:49.599Z,310
2018-07-13T09:02:48.891Z,255
2018-07-13T09:03:48.881Z,355
2018-07-13T09:04:49.040Z,880
2018-07-13T09:05:48.444Z,1140
2018-07-13T09:06:49.129Z,1095
2018-07-13T09:07:49.005Z,1365
2018-07-13T09:08:48.590Z,1670
2018-07-13T09:09:48.866Z,1480
2018-07-13T09:10:48.783Z,1430
2018-07-13T09:11:48.981Z,940
2018-07-13T09:12:48.859Z,1070
2018-07-13T09:13:49.479Z,630
2018-07-13T09:14:49.130Z,385
2018-07-13T09:15:49.109Z,580
2018-07-13T09:16:48.839Z,515
2018-07-13T09:17:48.573Z,415
2018-07-13T09:18:48.824Z,305
2018-07-13T09:19:48.546Z,205
2018-07-13T09:20:49.093Z,460
2018-07-13T09:21:48.541Z,465
2018-07-13T09:22:48.814Z,390
2018-07-13T09:23:48.807Z,345
2018-07-13T09:24:48.788Z,200
2018-07-13T09:25:48.524Z,505
2018-07-13T09:26:48.787Z,615
2018-07-13T09:27:48.782Z,735
2018-07-13T09:28:48.510Z,730
2018-07-13T09:29:48.766Z,775
2018-07-13T09:30:48.770Z,515
2018-07-13T09:31:48.493Z,475
2018-07-13T09:32:49.063Z,290
2018-07-13T09:33:48.790Z,165
2018-07-13T09:34:48.485Z,175
2018-07-13T09:35:48.731Z,170
2018-07-13T09:36:48.482Z,495
2018-07-13T09:37:48.732Z,440
2018-07-13T09:38:48.740Z,435
2018-07-13T09:39:48.719Z,335
2018-07-13T09:40:48.466Z,775
2018-07-13T09:41:48.732Z,385
2018-07-13T09:42:48.469Z,280
2018-07-13T09:43:48.436Z,295
2018-07-13T09:44:48.425Z,350
2018-07-13T09:45:48.690Z,300
2018-07-13T09:46:49.664Z,195
2018-07-13T09:47:48.986Z,155
2018-07-13T09:48:48.679Z,150
2018-07-13T09:49:48.676Z,150
2018-07-13T09:50:48.959Z,165
2018-07-13T09:51:48.942Z,150
2018-07-13T09:52:48.920Z,155
2018-07-13T09:53:49.428Z,245
2018-07-13T09:54:48.595Z,225
2018-07-13T09:55:48.367Z,200
2018-07-13T09:56:48.901Z,165
2018-07-13T09:57:48.361Z,155
2018-07-13T09:58:48.360Z,155
2018-07-13T09:59:48.870Z,170
2018-07-13T10:00:48.947Z,155
2018-07-13T10:01:48.858Z,155
2018-07-13T10:02:48.333Z,155
2018-07-13T10:03:48.857Z,150
2018-07-13T10:04:48.342Z,155
2018-07-13T10:05:48.603Z,160
2018-07-13T10:06:48.839Z,160
2018-07-13T10:07:48.298Z,160
2018-07-13T10:08:48.552Z,160
2018-07-13T10:09:48.542Z,165
2018-07-13T10:10:48.274Z,160
2018-07-13T10:11:47.744Z,165
2018-07-13T10:12:48.798Z,165
2018-07-13T10:13:48.515Z,170
2018-07-13T10:14:48.275Z,170
2018-07-13T10:15:48.514Z,175
2018-07-13T10:16:48.508Z,175
2018-07-13T10:17:48.494Z,365
2018-07-13T10:18:48.219Z,345
2018-07-13T10:19:48.213Z,570
2018-07-13T10:20:48.419Z,490
2018-07-13T10:21:47.982Z,335
2018-07-13T10:22:48.480Z,695
2018-07-13T10:23:47.956Z,410
2018-07-13T10:24:47.920Z,615
2018-07-13T10:25:47.656Z,500
2018-07-13T10:26:48.450Z,480
2018-07-13T10:27:48.442Z,1690
2018-07-13T10:28:48.166Z,1660
2018-07-13T10:29:48.427Z,1685
2018-07-13T10:30:48.416Z,2030
2018-07-13T10:31:48.151Z,2040
2018-07-13T10:32:48.401Z,2090
2018-07-13T10:33:48.144Z,2135
2018-07-13T10:34:48.406Z,2165
2018-07-13T10:35:47.876Z,2115
2018-07-13T10:36:48.137Z,2035
2018-07-13T10:37:48.666Z,1925
2018-07-13T10:38:48.389Z,1905
2018-07-13T10:39:48.659Z,1910
2018-07-13T10:40:47.870Z,1950
2018-07-13T10:41:48.389Z,1985
2018-07-13T10:42:48.134Z,1990
2018-07-13T10:43:48.404Z,2025
2018-07-13T10:44:48.446Z,1975
2018-07-13T10:45:48.587Z,1975
2018-07-13T10:46:48.403Z,1995
2018-07-13T10:47:48.681Z,1945
2018-07-13T10:48:48.409Z,1945
2018-07-13T10:49:47.881Z,1970
2018-07-13T10:50:48.145Z,1950
2018-07-13T10:51:48.584Z,1955
2018-07-13T10:52:48.158Z,1970
2018-07-13T10:53:48.151Z,2025
2018-07-13T10:54:48.620Z,2065
2018-07-13T10:55:48.692Z,2080
2018-07-13T10:56:48.702Z,2065
2018-07-13T10:57:48.185Z,2090
2018-07-13T10:58:48.727Z,2090
2018-07-13T10:59:48.719Z,2065
2018-07-13T11:00:48.459Z,2095
2018-07-13T11:01:48.189Z,2080
2018-07-13T11:02:48.620Z,2100
2018-07-13T11:03:48.204Z,2130
2018-07-13T11:04:48.212Z,2110
2018-07-13T11:05:47.946Z,2050
2018-07-13T11:06:48.478Z,2015
2018-07-13T11:07:47.963Z,2020
2018-07-13T11:08:48.494Z,2075
2018-07-13T11:09:48.503Z,2125
2018-07-13T11:10:47.973Z,2100
2018-07-13T11:11:48.515Z,1975
2018-07-13T11:12:48.253Z,1815
2018-07-13T11:13:48.634Z,1695
2018-07-13T11:14:48.055Z,1655
2018-07-13T11:15:48.008Z,1635
2018-07-13T11:16:48.283Z,1690
2018-07-13T11:17:48.285Z,1700
2018-07-13T11:18:48.028Z,1730
2018-07-13T11:19:48.566Z,1855
2018-07-13T11:20:48.571Z,2025
2018-07-13T11:21:48.055Z,2095
2018-07-13T11:22:48.584Z,2140
2018-07-13T11:23:48.586Z,2160
2018-07-13T11:24:48.331Z,2140
2018-07-13T11:25:48.600Z,2125
2018-07-13T11:26:48.614Z,2060
2018-07-13T11:27:48.352Z,1960
2018-07-13T11:28:48.632Z,1930
2018-07-13T11:29:48.555Z,1995
2018-07-13T11:30:48.377Z,2085
2018-07-13T11:31:48.375Z,2135
2018-07-13T11:32:48.662Z,2150
2018-07-13T11:33:48.391Z,2150
2018-07-13T11:34:48.928Z,2135
2018-07-13T11:35:48.945Z,2155
2018-07-13T11:36:49.072Z,2165
2018-07-13T11:37:48.755Z,2180
2018-07-13T11:38:48.726Z,2195
2018-07-13T11:39:48.175Z,2220
2018-07-13T11:40:48.709Z,2220
2018-07-13T11:41:48.720Z,2205
2018-07-13T11:42:48.733Z,2175
2018-07-13T11:43:48.743Z,2155
2018-07-13T11:44:48.478Z,2165
2018-07-13T11:45:48.485Z,2185
2018-07-13T11:46:48.755Z,2180
2018-07-13T11:47:48.487Z,2170
2018-07-13T11:48:49.037Z,2170
2018-07-13T11:49:48.787Z,2150
2018-07-13T11:50:48.253Z,2140
2018-07-13T11:51:48.520Z,2100
2018-07-13T11:52:48.536Z,2095
2018-07-13T11:53:48.831Z,2095
2018-07-13T11:54:48.752Z,2120
2018-07-13T11:55:48.309Z,2105
2018-07-13T11:56:48.834Z,2120
2018-07-13T11:57:48.305Z,2080
2018-07-13T11:58:48.579Z,2055
2018-07-13T11:59:48.850Z,1980
2018-07-13T12:00:48.968Z,1940
2018-07-13T12:01:48.641Z,1995
2018-07-13T12:02:49.017Z,2085
2018-07-13T12:03:49.143Z,2135
2018-07-13T12:04:48.886Z,2100
2018-07-13T12:05:48.890Z,2110
2018-07-13T12:06:48.919Z,2100
2018-07-13T12:07:50.246Z,2130
2018-07-13T12:08:48.395Z,2195
2018-07-13T12:09:49.193Z,2225
2018-07-13T12:10:48.952Z,2245
2018-07-13T12:11:48.409Z,2265
2018-07-13T12:12:48.453Z,2320
2018-07-13T12:13:48.696Z,2350
2018-07-13T12:14:48.967Z,2270
2018-07-13T12:15:49.236Z,2165
2018-07-13T12:16:49.249Z,2100
2018-07-13T12:17:48.964Z,2095
2018-07-13T12:18:48.466Z,2120
2018-07-13T12:19:48.787Z,2180
2018-07-13T12:20:49.005Z,2250
2018-07-13T12:21:48.755Z,2200
2018-07-13T12:22:48.774Z,2125
2018-07-13T12:23:49.082Z,2030
2018-07-13T12:24:49.042Z,2080
2018-07-13T12:25:48.519Z,2170
2018-07-13T12:26:48.840Z,2230
2018-07-13T12:27:49.335Z,2110
2018-07-13T12:28:49.074Z,1965
2018-07-13T12:29:48.813Z,1865
2018-07-13T12:30:49.084Z,1950
2018-07-13T12:31:49.357Z,2210
2018-07-13T12:32:48.840Z,2390
2018-07-13T12:33:48.844Z,2465
2018-07-13T12:34:49.131Z,2235
2018-07-13T12:35:48.863Z,1990
2018-07-13T12:36:49.137Z,2005
2018-07-13T12:37:48.872Z,2000
2018-07-13T12:38:49.412Z,1960
2018-07-13T12:39:49.072Z,1830
2018-07-13T12:40:49.160Z,1760
2018-07-13T12:41:49.432Z,1825
2018-07-13T12:42:48.912Z,1910
2018-07-13T12:43:49.468Z,1740
2018-07-13T12:44:49.454Z,1905
2018-07-13T12:45:49.210Z,1840
2018-07-13T12:46:49.211Z,1830
2018-07-13T12:47:49.223Z,1815
2018-07-13T12:48:48.956Z,1765
2018-07-13T12:49:49.243Z,1625
2018-07-13T12:50:48.711Z,1480
2018-07-13T12:51:49.505Z,1460
2018-07-13T12:52:49.254Z,1600
2018-07-13T12:53:48.795Z,1775
2018-07-13T12:54:49.184Z,1835
2018-07-13T12:55:49.081Z,1975
2018-07-13T12:56:49.554Z,1930
2018-07-13T12:57:48.789Z,1910
2018-07-13T12:58:49.298Z,830
2018-07-13T12:59:49.051Z,720
2018-07-13T13:00:49.335Z,1910
2018-07-13T13:01:49.063Z,1945
2018-07-13T13:02:49.366Z,1945
2018-07-13T13:03:49.301Z,1930
2018-07-13T13:04:49.367Z,1895
2018-07-13T13:05:49.801Z,1885
2018-07-13T13:07:20.934Z,1855
2018-07-13T13:07:49.165Z,1840
2018-07-13T13:08:49.139Z,1815
2018-07-13T13:09:49.448Z,1845
2018-07-13T13:10:49.145Z,1865
2018-07-13T13:11:49.687Z,1860
2018-07-13T13:12:49.424Z,1875
2018-07-13T13:13:49.433Z,1930
2018-07-13T13:14:49.188Z,1905
2018-07-13T13:15:49.178Z,1870
2018-07-13T13:16:49.717Z,1835
2018-07-13T13:17:49.482Z,1830
2018-07-13T13:18:49.202Z,1870
2018-07-13T13:19:49.749Z,1855
2018-07-13T13:20:49.488Z,1775
2018-07-13T13:21:49.998Z,1705
2018-07-13T13:22:48.975Z,1665
2018-07-13T13:23:49.512Z,1660
2018-07-13T13:24:49.787Z,1725
2018-07-13T13:25:49.031Z,1670
2018-07-13T13:26:49.555Z,1695
2018-07-13T13:27:49.015Z,1585
2018-07-13T13:28:49.288Z,1805
2018-07-13T13:29:49.289Z,1850
2018-07-13T13:30:49.576Z,1840
2018-07-13T13:31:49.829Z,1840
2018-07-13T13:32:49.664Z,1855
2018-07-13T13:33:49.591Z,1790
2018-07-13T13:34:49.858Z,1705
2018-07-13T13:35:49.823Z,1680
2018-07-13T13:36:49.612Z,970
2018-07-13T13:37:49.620Z,855
2018-07-13T13:38:49.100Z,1545
2018-07-13T13:39:49.674Z,1620
2018-07-13T13:40:49.662Z,1675
2018-07-13T13:41:49.642Z,1790
2018-07-13T13:42:49.123Z,1810
2018-07-13T13:43:49.146Z,1800
2018-07-13T13:44:49.935Z,1755
2018-07-13T13:45:49.409Z,1735
2018-07-13T13:46:49.691Z,1765
2018-07-13T13:47:49.686Z,1730
2018-07-13T13:48:49.695Z,1705
2018-07-13T13:49:50.060Z,1685
2018-07-13T13:50:49.194Z,1675
2018-07-13T13:51:49.711Z,1695
2018-07-13T13:52:49.472Z,1730
2018-07-13T13:53:49.961Z,1770
2018-07-13T13:54:50.403Z,1770
2018-07-13T13:55:49.480Z,1755
2018-07-13T13:56:49.225Z,1745
2018-07-13T13:57:49.763Z,1740
2018-07-13T13:58:49.761Z,1710